sensor_id;sensor_type;location;lat;lon;timestamp;temperature;humidity
843;DHT22;407;48.884;9.126;2023-09-19T00:00:30;18.50;1.00
843;DHT22;407;48.884;9.126;2023-09-19T00:02:56;18.50;1.00
843;DHT22;407;48.884;9.126;2023-09-19T00:05:23;18.30;1.00
843;DHT22;407;48.884;9.126;2023-09-19T00:07:53;18.10;1.00
843;DHT22;407;48.884;9.126;2023-09-19T00:10:21;18.10;1.00
843;DHT22;407;48.884;9.126;2023-09-19T00:12:47;18.10;1.00
843;DHT22;407;48.884;9.126;2023-09-19T00:15:13;18.10;1.00
843;DHT22;407;48.884;9.126;2023-09-19T00:17:38;18.20;1.00
843;DHT22;407;48.884;9.126;2023-09-19T00:20:06;18.10;1.00
843;DHT22;407;48.884;9.126;2023-09-19T00:22:33;18.10;1.00
843;DHT22;407;48.884;9.126;2023-09-19T00:24:58;18.00;1.00
843;DHT22;407;48.884;9.126;2023-09-19T00:27:24;18.10;1.00
843;DHT22;407;48.884;9.126;2023-09-19T00:29:49;18.20;1.00
843;DHT22;407;48.884;9.126;2023-09-19T00:32:15;18.20;1.00
843;DHT22;407;48.884;9.126;2023-09-19T00:34:40;18.10;1.00
843;DHT22;407;48.884;9.126;2023-09-19T00:37:07;18.10;1.00
843;DHT22;407;48.884;9.126;2023-09-19T00:39:33;18.00;1.00
843;DHT22;407;48.884;9.126;2023-09-19T00:41:58;18.00;1.00
843;DHT22;407;48.884;9.126;2023-09-19T00:44:30;18.00;1.00
843;DHT22;407;48.884;9.126;2023-09-19T00:46:55;18.00;1.00
843;DHT22;407;48.884;9.126;2023-09-19T00:49:22;18.10;1.00
843;DHT22;407;48.884;9.126;2023-09-19T00:51:48;18.10;1.00
843;DHT22;407;48.884;9.126;2023-09-19T00:54:14;18.20;1.00
843;DHT22;407;48.884;9.126;2023-09-19T00:56:44;18.20;1.00
843;DHT22;407;48.884;9.126;2023-09-19T00:59:10;18.10;1.00
843;DHT22;407;48.884;9.126;2023-09-19T01:01:37;18.20;1.00
843;DHT22;407;48.884;9.126;2023-09-19T01:04:05;18.20;1.00
843;DHT22;407;48.884;9.126;2023-09-19T01:06:31;18.10;1.00
843;DHT22;407;48.884;9.126;2023-09-19T01:08:56;18.20;1.00
843;DHT22;407;48.884;9.126;2023-09-19T01:11:43;18.10;1.00
843;DHT22;407;48.884;9.126;2023-09-19T01:14:25;18.10;1.00
843;DHT22;407;48.884;9.126;2023-09-19T01:17:13;18.10;1.00
843;DHT22;407;48.884;9.126;2023-09-19T01:25:07;18.20;1.00
843;DHT22;407;48.884;9.126;2023-09-19T01:27:57;18.30;1.00
843;DHT22;407;48.884;9.126;2023-09-19T01:30:32;18.30;1.00
843;DHT22;407;48.884;9.126;2023-09-19T01:32:58;18.20;1.00
843;DHT22;407;48.884;9.126;2023-09-19T01:35:24;18.20;1.00
843;DHT22;407;48.884;9.126;2023-09-19T01:37:50;18.10;1.00
843;DHT22;407;48.884;9.126;2023-09-19T01:40:18;18.10;1.00
843;DHT22;407;48.884;9.126;2023-09-19T01:45:50;18.10;1.00
843;DHT22;407;48.884;9.126;2023-09-19T01:48:38;18.10;1.00
843;DHT22;407;48.884;9.126;2023-09-19T01:51:09;17.90;1.00
843;DHT22;407;48.884;9.126;2023-09-19T01:53:55;17.90;1.00
843;DHT22;407;48.884;9.126;2023-09-19T01:56:32;17.80;1.00
843;DHT22;407;48.884;9.126;2023-09-19T01:59:06;17.80;1.00
843;DHT22;407;48.884;9.126;2023-09-19T02:01:33;17.80;1.00
843;DHT22;407;48.884;9.126;2023-09-19T02:04:00;17.80;1.00
843;DHT22;407;48.884;9.126;2023-09-19T02:06:26;17.80;1.00
843;DHT22;407;48.884;9.126;2023-09-19T02:08:54;17.70;1.00
843;DHT22;407;48.884;9.126;2023-09-19T02:11:20;17.60;1.00
843;DHT22;407;48.884;9.126;2023-09-19T02:13:45;17.60;1.00
843;DHT22;407;48.884;9.126;2023-09-19T02:16:11;17.50;1.00
843;DHT22;407;48.884;9.126;2023-09-19T02:18:37;17.50;1.00
843;DHT22;407;48.884;9.126;2023-09-19T02:21:04;17.50;1.00
843;DHT22;407;48.884;9.126;2023-09-19T02:23:32;17.50;1.00
843;DHT22;407;48.884;9.126;2023-09-19T02:25:59;17.50;1.00
843;DHT22;407;48.884;9.126;2023-09-19T02:28:27;17.40;1.00
843;DHT22;407;48.884;9.126;2023-09-19T02:30:57;17.40;1.00
843;DHT22;407;48.884;9.126;2023-09-19T02:33:23;17.30;1.00
843;DHT22;407;48.884;9.126;2023-09-19T02:35:48;17.40;1.00
843;DHT22;407;48.884;9.126;2023-09-19T02:38:14;17.30;1.00
843;DHT22;407;48.884;9.126;2023-09-19T02:40:43;17.40;1.00
843;DHT22;407;48.884;9.126;2023-09-19T02:43:09;17.40;1.00
843;DHT22;407;48.884;9.126;2023-09-19T02:45:35;17.40;1.00
843;DHT22;407;48.884;9.126;2023-09-19T02:48:00;17.40;1.00
843;DHT22;407;48.884;9.126;2023-09-19T02:50:28;17.40;1.00
843;DHT22;407;48.884;9.126;2023-09-19T02:52:53;17.50;1.00
843;DHT22;407;48.884;9.126;2023-09-19T02:55:20;17.60;1.00
843;DHT22;407;48.884;9.126;2023-09-19T02:57:48;17.70;1.00
843;DHT22;407;48.884;9.126;2023-09-19T03:00:14;17.70;1.00
843;DHT22;407;48.884;9.126;2023-09-19T03:02:40;17.80;1.00
843;DHT22;407;48.884;9.126;2023-09-19T03:05:07;17.90;1.00
843;DHT22;407;48.884;9.126;2023-09-19T03:07:33;17.90;1.00
843;DHT22;407;48.884;9.126;2023-09-19T03:09:59;17.90;1.00
843;DHT22;407;48.884;9.126;2023-09-19T03:12:26;17.90;1.00
843;DHT22;407;48.884;9.126;2023-09-19T03:14:51;17.90;1.00
843;DHT22;407;48.884;9.126;2023-09-19T03:17:17;17.90;1.00
843;DHT22;407;48.884;9.126;2023-09-19T03:19:45;18.10;1.00
843;DHT22;407;48.884;9.126;2023-09-19T03:22:10;18.10;1.00
843;DHT22;407;48.884;9.126;2023-09-19T03:24:36;18.20;1.00
843;DHT22;407;48.884;9.126;2023-09-19T03:27:03;18.10;1.00
843;DHT22;407;48.884;9.126;2023-09-19T03:29:29;18.00;1.00
843;DHT22;407;48.884;9.126;2023-09-19T03:31:55;18.00;1.00
843;DHT22;407;48.884;9.126;2023-09-19T03:34:20;17.90;1.00
843;DHT22;407;48.884;9.126;2023-09-19T03:36:46;17.80;1.00
843;DHT22;407;48.884;9.126;2023-09-19T03:39:12;17.80;1.00
843;DHT22;407;48.884;9.126;2023-09-19T03:41:40;17.90;1.00
843;DHT22;407;48.884;9.126;2023-09-19T03:44:05;17.80;1.00
843;DHT22;407;48.884;9.126;2023-09-19T03:46:31;17.80;1.00
843;DHT22;407;48.884;9.126;2023-09-19T03:48:57;17.80;1.00
843;DHT22;407;48.884;9.126;2023-09-19T03:51:23;17.80;1.00
843;DHT22;407;48.884;9.126;2023-09-19T03:53:49;17.60;1.00
843;DHT22;407;48.884;9.126;2023-09-19T03:56:15;17.40;1.00
843;DHT22;407;48.884;9.126;2023-09-19T03:58:41;17.40;14.90
843;DHT22;407;48.884;9.126;2023-09-19T04:01:06;17.40;16.80
843;DHT22;407;48.884;9.126;2023-09-19T04:03:35;17.40;17.20
843;DHT22;407;48.884;9.126;2023-09-19T04:06:15;17.40;9.10
843;DHT22;407;48.884;9.126;2023-09-19T04:08:41;17.40;19.60
843;DHT22;407;48.884;9.126;2023-09-19T04:11:07;17.40;22.20
843;DHT22;407;48.884;9.126;2023-09-19T04:13:34;17.50;14.70
843;DHT22;407;48.884;9.126;2023-09-19T04:16:00;17.60;9.00
843;DHT22;407;48.884;9.126;2023-09-19T04:18:25;17.60;1.00
843;DHT22;407;48.884;9.126;2023-09-19T04:20:51;17.70;1.00
843;DHT22;407;48.884;9.126;2023-09-19T04:23:17;17.60;1.00
843;DHT22;407;48.884;9.126;2023-09-19T04:25:45;17.70;1.00
843;DHT22;407;48.884;9.126;2023-09-19T04:28:11;17.70;1.00
843;DHT22;407;48.884;9.126;2023-09-19T04:30:37;17.70;1.00
843;DHT22;407;48.884;9.126;2023-09-19T04:33:03;17.70;1.00
843;DHT22;407;48.884;9.126;2023-09-19T04:35:28;17.80;1.00
843;DHT22;407;48.884;9.126;2023-09-19T04:37:57;17.80;1.00
843;DHT22;407;48.884;9.126;2023-09-19T04:40:23;17.80;2.40
843;DHT22;407;48.884;9.126;2023-09-19T04:42:56;17.80;15.80
843;DHT22;407;48.884;9.126;2023-09-19T04:45:23;17.90;20.90
843;DHT22;407;48.884;9.126;2023-09-19T04:47:48;18.00;8.90
843;DHT22;407;48.884;9.126;2023-09-19T04:50:14;18.10;1.00
843;DHT22;407;48.884;9.126;2023-09-19T04:52:41;18.20;1.00
843;DHT22;407;48.884;9.126;2023-09-19T04:55:12;18.20;1.00
843;DHT22;407;48.884;9.126;2023-09-19T04:57:42;18.20;1.00
843;DHT22;407;48.884;9.126;2023-09-19T05:00:08;18.30;1.00
843;DHT22;407;48.884;9.126;2023-09-19T05:02:38;18.30;1.00
843;DHT22;407;48.884;9.126;2023-09-19T05:05:04;18.20;1.00
843;DHT22;407;48.884;9.126;2023-09-19T05:07:30;18.10;1.00
843;DHT22;407;48.884;9.126;2023-09-19T05:09:55;17.90;13.30
843;DHT22;407;48.884;9.126;2023-09-19T05:12:21;17.80;17.20
843;DHT22;407;48.884;9.126;2023-09-19T05:14:46;17.80;20.70
843;DHT22;407;48.884;9.126;2023-09-19T05:17:13;17.70;32.40
843;DHT22;407;48.884;9.126;2023-09-19T05:19:39;17.30;99.90
843;DHT22;407;48.884;9.126;2023-09-19T05:22:04;17.20;99.90
843;DHT22;407;48.884;9.126;2023-09-19T05:24:30;17.00;99.90
843;DHT22;407;48.884;9.126;2023-09-19T05:26:56;17.00;99.90
843;DHT22;407;48.884;9.126;2023-09-19T05:29:22;16.80;99.90
843;DHT22;407;48.884;9.126;2023-09-19T05:31:48;16.90;99.90
843;DHT22;407;48.884;9.126;2023-09-19T05:34:15;16.90;99.90
843;DHT22;407;48.884;9.126;2023-09-19T05:36:40;16.90;99.90
843;DHT22;407;48.884;9.126;2023-09-19T05:39:06;16.80;99.90
843;DHT22;407;48.884;9.126;2023-09-19T05:41:35;16.90;99.90
843;DHT22;407;48.884;9.126;2023-09-19T05:44:02;16.90;99.90
843;DHT22;407;48.884;9.126;2023-09-19T05:46:28;16.80;99.90
843;DHT22;407;48.884;9.126;2023-09-19T05:48:55;16.80;99.90
843;DHT22;407;48.884;9.126;2023-09-19T05:51:22;16.80;99.90
843;DHT22;407;48.884;9.126;2023-09-19T05:53:48;16.70;99.90
843;DHT22;407;48.884;9.126;2023-09-19T05:56:14;16.70;99.90
843;DHT22;407;48.884;9.126;2023-09-19T05:58:40;16.60;99.90
843;DHT22;407;48.884;9.126;2023-09-19T06:01:08;16.50;99.90
843;DHT22;407;48.884;9.126;2023-09-19T06:03:35;16.30;99.90
843;DHT22;407;48.884;9.126;2023-09-19T06:06:01;16.40;99.90
843;DHT22;407;48.884;9.126;2023-09-19T06:08:27;16.20;99.90
843;DHT22;407;48.884;9.126;2023-09-19T06:10:53;16.00;99.90
843;DHT22;407;48.884;9.126;2023-09-19T06:13:20;16.10;99.90
843;DHT22;407;48.884;9.126;2023-09-19T06:15:46;16.10;99.90
843;DHT22;407;48.884;9.126;2023-09-19T06:18:15;16.20;99.90
843;DHT22;407;48.884;9.126;2023-09-19T06:20:47;16.30;99.90
843;DHT22;407;48.884;9.126;2023-09-19T06:23:14;16.40;99.90
843;DHT22;407;48.884;9.126;2023-09-19T06:25:40;16.40;99.90
843;DHT22;407;48.884;9.126;2023-09-19T06:28:06;16.50;99.90
843;DHT22;407;48.884;9.126;2023-09-19T06:30:33;16.40;97.30
843;DHT22;407;48.884;9.126;2023-09-19T06:33:00;16.60;99.90
843;DHT22;407;48.884;9.126;2023-09-19T06:35:32;16.70;5.60
843;DHT22;407;48.884;9.126;2023-09-19T06:37:58;17.00;45.80
843;DHT22;407;48.884;9.126;2023-09-19T06:40:23;17.20;3.30
843;DHT22;407;48.884;9.126;2023-09-19T06:42:52;17.50;1.00
843;DHT22;407;48.884;9.126;2023-09-19T06:45:19;18.00;1.00
843;DHT22;407;48.884;9.126;2023-09-19T06:47:50;18.60;1.00
843;DHT22;407;48.884;9.126;2023-09-19T06:50:22;19.00;99.90
843;DHT22;407;48.884;9.126;2023-09-19T06:52:49;19.20;99.90
843;DHT22;407;48.884;9.126;2023-09-19T06:55:17;19.40;1.00
843;DHT22;407;48.884;9.126;2023-09-19T06:57:44;19.70;27.10
843;DHT22;407;48.884;9.126;2023-09-19T07:00:11;20.00;99.90
843;DHT22;407;48.884;9.126;2023-09-19T07:03:04;19.90;99.90
843;DHT22;407;48.884;9.126;2023-09-19T07:05:34;20.10;99.90
843;DHT22;407;48.884;9.126;2023-09-19T07:08:03;20.40;1.00
843;DHT22;407;48.884;9.126;2023-09-19T07:10:30;20.60;28.60
843;DHT22;407;48.884;9.126;2023-09-19T07:13:05;20.40;99.90
843;DHT22;407;48.884;9.126;2023-09-19T07:15:36;20.20;1.00
843;DHT22;407;48.884;9.126;2023-09-19T07:18:05;19.60;14.10
843;DHT22;407;48.884;9.126;2023-09-19T07:20:31;19.40;1.00
843;DHT22;407;48.884;9.126;2023-09-19T07:22:58;19.20;92.40
843;DHT22;407;48.884;9.126;2023-09-19T07:25:25;19.40;99.90
843;DHT22;407;48.884;9.126;2023-09-19T07:27:51;19.60;99.90
843;DHT22;407;48.884;9.126;2023-09-19T07:30:16;19.50;74.80
843;DHT22;407;48.884;9.126;2023-09-19T07:32:42;19.70;1.00
843;DHT22;407;48.884;9.126;2023-09-19T07:35:08;19.90;99.90
843;DHT22;407;48.884;9.126;2023-09-19T07:37:34;20.20;1.00
843;DHT22;407;48.884;9.126;2023-09-19T07:40:04;20.60;99.90
843;DHT22;407;48.884;9.126;2023-09-19T07:42:33;20.90;26.50
843;DHT22;407;48.884;9.126;2023-09-19T07:45:01;21.00;99.90
843;DHT22;407;48.884;9.126;2023-09-19T07:47:26;21.40;1.00
843;DHT22;407;48.884;9.126;2023-09-19T07:49:52;22.10;1.00
843;DHT22;407;48.884;9.126;2023-09-19T07:52:18;22.40;43.40
843;DHT22;407;48.884;9.126;2023-09-19T07:54:44;22.50;1.00
843;DHT22;407;48.884;9.126;2023-09-19T07:57:10;22.10;1.00
843;DHT22;407;48.884;9.126;2023-09-19T07:59:37;22.20;1.00
843;DHT22;407;48.884;9.126;2023-09-19T08:02:04;22.30;1.00
843;DHT22;407;48.884;9.126;2023-09-19T08:04:30;22.20;1.00
843;DHT22;407;48.884;9.126;2023-09-19T08:06:58;22.70;1.00
843;DHT22;407;48.884;9.126;2023-09-19T08:09:24;23.10;99.90
843;DHT22;407;48.884;9.126;2023-09-19T08:11:50;23.30;27.60
843;DHT22;407;48.884;9.126;2023-09-19T08:14:16;23.60;99.90
843;DHT22;407;48.884;9.126;2023-09-19T08:16:41;24.60;1.00
843;DHT22;407;48.884;9.126;2023-09-19T08:19:09;25.00;1.00
843;DHT22;407;48.884;9.126;2023-09-19T08:21:35;24.80;1.00
843;DHT22;407;48.884;9.126;2023-09-19T08:24:01;24.30;1.00
843;DHT22;407;48.884;9.126;2023-09-19T08:26:29;24.30;1.00
843;DHT22;407;48.884;9.126;2023-09-19T08:28:56;24.30;1.00
843;DHT22;407;48.884;9.126;2023-09-19T08:31:21;24.00;1.00
843;DHT22;407;48.884;9.126;2023-09-19T08:33:48;24.00;1.00
843;DHT22;407;48.884;9.126;2023-09-19T08:36:14;24.40;1.00
843;DHT22;407;48.884;9.126;2023-09-19T08:38:40;24.60;1.00
843;DHT22;407;48.884;9.126;2023-09-19T08:41:07;24.50;1.00
843;DHT22;407;48.884;9.126;2023-09-19T08:43:33;24.60;1.00
843;DHT22;407;48.884;9.126;2023-09-19T08:48:31;25.10;1.00
843;DHT22;407;48.884;9.126;2023-09-19T08:51:10;24.50;1.00
843;DHT22;407;48.884;9.126;2023-09-19T08:54:08;24.10;1.00
843;DHT22;407;48.884;9.126;2023-09-19T08:56:37;24.80;1.00
843;DHT22;407;48.884;9.126;2023-09-19T08:59:06;24.90;1.00
843;DHT22;407;48.884;9.126;2023-09-19T09:01:35;24.70;1.00
843;DHT22;407;48.884;9.126;2023-09-19T09:04:02;25.00;1.00
843;DHT22;407;48.884;9.126;2023-09-19T09:06:28;25.40;1.00
843;DHT22;407;48.884;9.126;2023-09-19T09:08:54;25.40;1.00
843;DHT22;407;48.884;9.126;2023-09-19T09:11:20;24.80;1.00
843;DHT22;407;48.884;9.126;2023-09-19T09:13:47;24.20;1.00
843;DHT22;407;48.884;9.126;2023-09-19T09:16:14;24.50;1.00
843;DHT22;407;48.884;9.126;2023-09-19T09:18:44;24.20;99.90
843;DHT22;407;48.884;9.126;2023-09-19T09:21:11;24.00;99.90
843;DHT22;407;48.884;9.126;2023-09-19T09:23:36;25.50;1.00
843;DHT22;407;48.884;9.126;2023-09-19T09:26:02;26.70;99.90
843;DHT22;407;48.884;9.126;2023-09-19T09:28:30;25.00;99.90
843;DHT22;407;48.884;9.126;2023-09-19T09:33:23;25.30;99.90
843;DHT22;407;48.884;9.126;2023-09-19T09:35:51;25.20;99.90
843;DHT22;407;48.884;9.126;2023-09-19T09:38:21;25.80;99.90
843;DHT22;407;48.884;9.126;2023-09-19T09:40:52;23.70;99.90
843;DHT22;407;48.884;9.126;2023-09-19T09:43:27;23.20;99.90
843;DHT22;407;48.884;9.126;2023-09-19T09:46:14;23.30;99.90
843;DHT22;407;48.884;9.126;2023-09-19T09:48:56;23.30;99.90
843;DHT22;407;48.884;9.126;2023-09-19T09:51:42;24.90;99.90
843;DHT22;407;48.884;9.126;2023-09-19T09:54:26;25.40;99.90
843;DHT22;407;48.884;9.126;2023-09-19T09:57:08;25.60;99.90
843;DHT22;407;48.884;9.126;2023-09-19T09:59:54;25.30;99.90
843;DHT22;407;48.884;9.126;2023-09-19T10:02:38;25.20;99.90
843;DHT22;407;48.884;9.126;2023-09-19T10:05:30;24.60;99.90
843;DHT22;407;48.884;9.126;2023-09-19T10:08:12;24.00;99.90
843;DHT22;407;48.884;9.126;2023-09-19T10:10:41;24.00;99.90
843;DHT22;407;48.884;9.126;2023-09-19T10:13:08;24.30;99.90
843;DHT22;407;48.884;9.126;2023-09-19T10:15:37;24.10;99.90
843;DHT22;407;48.884;9.126;2023-09-19T10:18:06;24.30;99.90
843;DHT22;407;48.884;9.126;2023-09-19T10:20:34;24.90;99.90
843;DHT22;407;48.884;9.126;2023-09-19T10:23:06;25.50;99.90
843;DHT22;407;48.884;9.126;2023-09-19T10:25:37;26.40;99.90
843;DHT22;407;48.884;9.126;2023-09-19T10:28:02;27.20;99.90
843;DHT22;407;48.884;9.126;2023-09-19T10:30:32;26.70;99.90
843;DHT22;407;48.884;9.126;2023-09-19T10:33:03;25.50;99.90
843;DHT22;407;48.884;9.126;2023-09-19T10:35:29;25.40;99.90
843;DHT22;407;48.884;9.126;2023-09-19T10:37:57;24.80;99.90
843;DHT22;407;48.884;9.126;2023-09-19T10:40:26;25.00;99.90
843;DHT22;407;48.884;9.126;2023-09-19T10:43:03;24.50;99.90
843;DHT22;407;48.884;9.126;2023-09-19T10:45:31;24.20;99.90
843;DHT22;407;48.884;9.126;2023-09-19T10:47:58;24.10;99.90
843;DHT22;407;48.884;9.126;2023-09-19T10:50:24;23.30;99.90
843;DHT22;407;48.884;9.126;2023-09-19T10:52:53;23.30;99.90
843;DHT22;407;48.884;9.126;2023-09-19T10:55:32;24.00;99.90
843;DHT22;407;48.884;9.126;2023-09-19T10:58:02;24.10;99.90
843;DHT22;407;48.884;9.126;2023-09-19T11:00:54;24.00;99.90
843;DHT22;407;48.884;9.126;2023-09-19T11:03:21;23.90;99.90
843;DHT22;407;48.884;9.126;2023-09-19T11:06:11;24.50;99.90
843;DHT22;407;48.884;9.126;2023-09-19T11:08:59;24.40;99.90
843;DHT22;407;48.884;9.126;2023-09-19T11:11:43;23.80;99.90
843;DHT22;407;48.884;9.126;2023-09-19T11:30:36;22.90;99.90
843;DHT22;407;48.884;9.126;2023-09-19T11:33:22;23.60;99.90
843;DHT22;407;48.884;9.126;2023-09-19T11:36:11;24.00;99.90
843;DHT22;407;48.884;9.126;2023-09-19T11:41:37;23.70;99.90
843;DHT22;407;48.884;9.126;2023-09-19T11:49:18;24.30;99.90
843;DHT22;407;48.884;9.126;2023-09-19T11:51:47;24.00;99.90
843;DHT22;407;48.884;9.126;2023-09-19T11:54:16;23.90;99.90
843;DHT22;407;48.884;9.126;2023-09-19T11:56:45;23.90;99.90
843;DHT22;407;48.884;9.126;2023-09-19T11:59:11;24.10;99.90
843;DHT22;407;48.884;9.126;2023-09-19T12:01:38;24.00;99.90
843;DHT22;407;48.884;9.126;2023-09-19T12:04:11;24.40;99.90
843;DHT22;407;48.884;9.126;2023-09-19T12:06:37;24.50;99.90
843;DHT22;407;48.884;9.126;2023-09-19T12:09:12;24.60;99.90
843;DHT22;407;48.884;9.126;2023-09-19T12:11:42;24.20;99.90
843;DHT22;407;48.884;9.126;2023-09-19T12:14:09;24.00;99.90
843;DHT22;407;48.884;9.126;2023-09-19T12:16:35;23.90;99.90
843;DHT22;407;48.884;9.126;2023-09-19T12:19:21;24.10;99.90
843;DHT22;407;48.884;9.126;2023-09-19T12:22:07;24.40;99.90
843;DHT22;407;48.884;9.126;2023-09-19T12:24:35;24.70;99.90
843;DHT22;407;48.884;9.126;2023-09-19T12:27:07;24.90;99.90
843;DHT22;407;48.884;9.126;2023-09-19T12:29:48;25.10;99.90
843;DHT22;407;48.884;9.126;2023-09-19T12:32:14;25.00;99.90
843;DHT22;407;48.884;9.126;2023-09-19T12:34:42;24.60;99.90
843;DHT22;407;48.884;9.126;2023-09-19T12:37:12;24.50;99.90
843;DHT22;407;48.884;9.126;2023-09-19T12:39:39;24.70;99.90
843;DHT22;407;48.884;9.126;2023-09-19T12:42:07;24.80;99.90
843;DHT22;407;48.884;9.126;2023-09-19T12:44:35;24.90;99.90
843;DHT22;407;48.884;9.126;2023-09-19T12:47:13;24.60;99.90
843;DHT22;407;48.884;9.126;2023-09-19T12:52:51;24.20;99.90
843;DHT22;407;48.884;9.126;2023-09-19T12:55:31;24.60;99.90
843;DHT22;407;48.884;9.126;2023-09-19T12:58:13;24.40;99.90
843;DHT22;407;48.884;9.126;2023-09-19T13:00:45;24.50;99.90
843;DHT22;407;48.884;9.126;2023-09-19T13:05:50;24.70;99.90
843;DHT22;407;48.884;9.126;2023-09-19T13:08:18;24.90;99.90
843;DHT22;407;48.884;9.126;2023-09-19T13:11:05;24.90;99.90
843;DHT22;407;48.884;9.126;2023-09-19T13:13:44;25.00;99.90
843;DHT22;407;48.884;9.126;2023-09-19T13:16:15;24.70;99.90
843;DHT22;407;48.884;9.126;2023-09-19T13:18:46;24.70;99.90
843;DHT22;407;48.884;9.126;2023-09-19T13:21:13;24.80;99.90
843;DHT22;407;48.884;9.126;2023-09-19T13:23:52;25.30;99.90
843;DHT22;407;48.884;9.126;2023-09-19T13:26:19;25.40;99.90
843;DHT22;407;48.884;9.126;2023-09-19T13:28:45;25.50;99.90
843;DHT22;407;48.884;9.126;2023-09-19T13:31:13;25.60;99.90
843;DHT22;407;48.884;9.126;2023-09-19T13:33:47;25.40;99.90
843;DHT22;407;48.884;9.126;2023-09-19T13:36:12;25.40;99.90
843;DHT22;407;48.884;9.126;2023-09-19T13:38:40;25.20;99.90
843;DHT22;407;48.884;9.126;2023-09-19T13:41:09;24.90;99.90
843;DHT22;407;48.884;9.126;2023-09-19T13:43:35;25.20;99.90
843;DHT22;407;48.884;9.126;2023-09-19T13:46:01;25.10;99.90
843;DHT22;407;48.884;9.126;2023-09-19T13:48:27;24.90;99.90
843;DHT22;407;48.884;9.126;2023-09-19T13:50:55;25.00;99.90
843;DHT22;407;48.884;9.126;2023-09-19T13:53:21;25.40;99.90
843;DHT22;407;48.884;9.126;2023-09-19T13:55:47;25.60;99.90
843;DHT22;407;48.884;9.126;2023-09-19T13:58:14;25.40;99.90
843;DHT22;407;48.884;9.126;2023-09-19T14:00:39;25.20;99.90
843;DHT22;407;48.884;9.126;2023-09-19T14:03:05;24.80;99.90
843;DHT22;407;48.884;9.126;2023-09-19T14:05:30;24.70;99.90
843;DHT22;407;48.884;9.126;2023-09-19T14:07:57;24.70;99.90
843;DHT22;407;48.884;9.126;2023-09-19T14:10:25;24.70;99.90
843;DHT22;407;48.884;9.126;2023-09-19T14:12:52;24.50;99.90
843;DHT22;407;48.884;9.126;2023-09-19T14:15:18;24.50;99.90
843;DHT22;407;48.884;9.126;2023-09-19T14:17:45;24.50;99.90
843;DHT22;407;48.884;9.126;2023-09-19T14:20:11;24.60;99.90
843;DHT22;407;48.884;9.126;2023-09-19T14:22:37;24.30;99.90
843;DHT22;407;48.884;9.126;2023-09-19T14:25:04;24.10;99.90
843;DHT22;407;48.884;9.126;2023-09-19T14:27:30;24.20;99.90
843;DHT22;407;48.884;9.126;2023-09-19T14:29:55;24.10;99.90
843;DHT22;407;48.884;9.126;2023-09-19T14:32:22;24.00;99.90
843;DHT22;407;48.884;9.126;2023-09-19T14:34:48;24.00;99.90
843;DHT22;407;48.884;9.126;2023-09-19T14:37:13;24.10;99.90
843;DHT22;407;48.884;9.126;2023-09-19T14:39:41;24.20;99.90
843;DHT22;407;48.884;9.126;2023-09-19T14:42:10;24.40;99.90
843;DHT22;407;48.884;9.126;2023-09-19T14:44:36;24.30;99.90
843;DHT22;407;48.884;9.126;2023-09-19T14:47:03;24.30;99.90
843;DHT22;407;48.884;9.126;2023-09-19T14:49:35;24.20;99.90
843;DHT22;407;48.884;9.126;2023-09-19T14:52:03;24.00;99.90
843;DHT22;407;48.884;9.126;2023-09-19T14:54:30;24.10;99.90
843;DHT22;407;48.884;9.126;2023-09-19T14:56:56;24.10;99.90
843;DHT22;407;48.884;9.126;2023-09-19T14:59:32;24.00;99.90
843;DHT22;407;48.884;9.126;2023-09-19T15:01:58;24.10;99.90
843;DHT22;407;48.884;9.126;2023-09-19T15:04:24;24.00;99.90
843;DHT22;407;48.884;9.126;2023-09-19T15:06:50;23.90;99.90
843;DHT22;407;48.884;9.126;2023-09-19T15:09:21;24.00;99.90
843;DHT22;407;48.884;9.126;2023-09-19T15:11:54;24.00;99.90
843;DHT22;407;48.884;9.126;2023-09-19T15:14:20;23.80;99.90
843;DHT22;407;48.884;9.126;2023-09-19T15:16:46;23.80;99.90
843;DHT22;407;48.884;9.126;2023-09-19T15:19:12;23.80;99.90
843;DHT22;407;48.884;9.126;2023-09-19T15:21:37;23.90;99.90
843;DHT22;407;48.884;9.126;2023-09-19T15:24:03;24.10;99.90
843;DHT22;407;48.884;9.126;2023-09-19T15:26:30;24.00;99.90
843;DHT22;407;48.884;9.126;2023-09-19T15:28:56;23.90;99.90
843;DHT22;407;48.884;9.126;2023-09-19T15:31:22;24.00;99.90
843;DHT22;407;48.884;9.126;2023-09-19T15:33:47;24.10;99.90
843;DHT22;407;48.884;9.126;2023-09-19T15:36:14;24.00;99.90
843;DHT22;407;48.884;9.126;2023-09-19T15:41:32;23.50;99.90
843;DHT22;407;48.884;9.126;2023-09-19T15:43:59;23.40;99.90
843;DHT22;407;48.884;9.126;2023-09-19T15:46:30;23.40;99.90
843;DHT22;407;48.884;9.126;2023-09-19T15:48:56;23.40;99.90
843;DHT22;407;48.884;9.126;2023-09-19T15:51:22;23.50;99.90
843;DHT22;407;48.884;9.126;2023-09-19T15:53:49;23.30;99.90
843;DHT22;407;48.884;9.126;2023-09-19T15:56:16;23.20;99.90
843;DHT22;407;48.884;9.126;2023-09-19T15:58:44;22.90;99.90
843;DHT22;407;48.884;9.126;2023-09-19T16:01:10;22.70;99.90
843;DHT22;407;48.884;9.126;2023-09-19T16:03:41;22.80;99.90
843;DHT22;407;48.884;9.126;2023-09-19T16:06:12;22.80;99.90
843;DHT22;407;48.884;9.126;2023-09-19T16:08:40;22.70;99.90
843;DHT22;407;48.884;9.126;2023-09-19T16:11:05;22.70;99.90
843;DHT22;407;48.884;9.126;2023-09-19T16:13:31;22.90;99.90
843;DHT22;407;48.884;9.126;2023-09-19T16:15:57;23.00;99.90
843;DHT22;407;48.884;9.126;2023-09-19T16:18:23;23.00;99.90
843;DHT22;407;48.884;9.126;2023-09-19T16:20:48;22.90;99.90
843;DHT22;407;48.884;9.126;2023-09-19T16:23:15;22.90;99.90
843;DHT22;407;48.884;9.126;2023-09-19T16:25:43;22.90;99.90
843;DHT22;407;48.884;9.126;2023-09-19T16:28:09;22.90;99.90
843;DHT22;407;48.884;9.126;2023-09-19T16:30:35;22.80;99.90
843;DHT22;407;48.884;9.126;2023-09-19T16:33:00;22.80;99.90
843;DHT22;407;48.884;9.126;2023-09-19T16:35:26;22.70;99.90
843;DHT22;407;48.884;9.126;2023-09-19T16:37:53;22.70;99.90
843;DHT22;407;48.884;9.126;2023-09-19T16:40:18;22.70;99.90
843;DHT22;407;48.884;9.126;2023-09-19T16:42:44;22.80;99.90
843;DHT22;407;48.884;9.126;2023-09-19T16:45:10;22.70;99.90
843;DHT22;407;48.884;9.126;2023-09-19T16:47:36;22.70;99.90
843;DHT22;407;48.884;9.126;2023-09-19T16:50:08;22.70;99.90
843;DHT22;407;48.884;9.126;2023-09-19T16:52:35;22.60;99.90
843;DHT22;407;48.884;9.126;2023-09-19T16:55:00;22.60;99.90
843;DHT22;407;48.884;9.126;2023-09-19T16:57:26;22.50;99.90
843;DHT22;407;48.884;9.126;2023-09-19T16:59:51;22.50;99.90
843;DHT22;407;48.884;9.126;2023-09-19T17:02:17;22.50;99.90
843;DHT22;407;48.884;9.126;2023-09-19T17:04:42;22.40;99.90
843;DHT22;407;48.884;9.126;2023-09-19T17:07:10;22.40;99.90
843;DHT22;407;48.884;9.126;2023-09-19T17:09:35;22.30;99.90
843;DHT22;407;48.884;9.126;2023-09-19T17:12:01;22.30;99.90
843;DHT22;407;48.884;9.126;2023-09-19T17:14:28;22.20;99.90
843;DHT22;407;48.884;9.126;2023-09-19T17:16:55;22.20;99.90
843;DHT22;407;48.884;9.126;2023-09-19T17:19:20;22.10;99.90
843;DHT22;407;48.884;9.126;2023-09-19T17:21:48;22.00;99.90
843;DHT22;407;48.884;9.126;2023-09-19T17:24:13;21.90;99.90
843;DHT22;407;48.884;9.126;2023-09-19T17:26:39;21.90;99.90
843;DHT22;407;48.884;9.126;2023-09-19T17:29:05;21.80;99.90
843;DHT22;407;48.884;9.126;2023-09-19T17:31:32;21.60;99.90
843;DHT22;407;48.884;9.126;2023-09-19T17:33:57;21.50;99.90
843;DHT22;407;48.884;9.126;2023-09-19T17:36:25;21.40;99.90